createdAt,value
2022-09-21T00:00:01.337Z,7.70
2022-09-21T00:05:03.982Z,7.56
2022-09-21T00:10:07.368Z,7.48
2022-09-21T00:15:12.453Z,7.97
2022-09-21T00:20:17.180Z,8.26
2022-09-21T00:25:20.732Z,8.32
2022-09-21T00:30:24.705Z,7.95
2022-09-21T00:35:27.378Z,7.46
2022-09-21T00:40:30.718Z,8.03
2022-09-21T00:45:35.053Z,8.58
2022-09-21T00:50:43.892Z,8.71
2022-09-21T00:55:51.236Z,8.53
2022-09-21T01:00:56.264Z,7.56
2022-09-21T01:05:58.731Z,7.81
2022-09-21T01:11:23.336Z,8.25
2022-09-21T01:16:34.419Z,7.88
2022-09-21T01:21:45.899Z,7.73
2022-09-21T01:27:15.141Z,7.87
2022-09-21T01:32:24.104Z,7.70
2022-09-21T01:37:36.166Z,7.91
2022-09-21T01:42:42.230Z,8.02
2022-09-21T01:47:49.582Z,7.98
2022-09-21T01:52:59.397Z,7.50
2022-09-21T01:58:08.100Z,7.99
2022-09-21T02:03:17.793Z,7.72
2022-09-21T02:08:20.431Z,7.61
2022-09-21T02:13:27.631Z,7.75
2022-09-21T02:18:41.947Z,7.26
2022-09-21T02:23:52.823Z,6.96
2022-09-21T02:29:01.501Z,6.60
2022-09-21T02:34:14.332Z,7.05
2022-09-21T02:39:20.258Z,7.69
2022-09-21T02:44:33.656Z,7.63
2022-09-21T02:49:43.889Z,7.65
2022-09-21T02:54:50.630Z,7.63
2022-09-21T02:59:53.641Z,6.49
2022-09-21T03:04:57.797Z,6.74
2022-09-21T03:10:00.272Z,7.42
2022-09-21T03:15:03.019Z,6.90
2022-09-21T03:20:08.134Z,7.47
2022-09-21T03:25:12.317Z,7.74
2022-09-21T03:30:15.090Z,7.61
2022-09-21T03:35:19.469Z,7.03
2022-09-21T03:40:22.196Z,7.46
2022-09-21T03:45:24.933Z,7.35
2022-09-21T03:50:30.046Z,7.39
2022-09-21T03:55:33.253Z,7.63
2022-09-21T04:00:36.427Z,7.48
2022-09-21T04:05:41.199Z,7.10
2022-09-21T04:10:44.185Z,7.18
2022-09-21T04:15:46.650Z,6.91
2022-09-21T04:20:50.512Z,6.75
2022-09-21T04:25:55.798Z,7.03
2022-09-21T04:30:58.338Z,7.30
2022-09-21T04:36:02.616Z,7.06
2022-09-21T04:41:05.551Z,6.93
2022-09-21T04:46:09.508Z,6.90
2022-09-21T04:51:14.945Z,7.20
2022-09-21T04:56:18.206Z,7.34
2022-09-21T05:01:20.864Z,7.23
2022-09-21T05:06:24.810Z,7.48
2022-09-21T05:11:27.902Z,7.68
2022-09-21T05:16:30.390Z,7.34
2022-09-21T05:21:34.239Z,7.51
2022-09-21T05:26:36.680Z,7.65
2022-09-21T05:31:47.013Z,7.50
2022-09-21T05:36:59.542Z,7.86
2022-09-21T05:42:03.124Z,8.06
2022-09-21T05:47:17.034Z,7.98
2022-09-21T05:52:29.318Z,8.55
2022-09-21T05:57:45.277Z,8.22
2022-09-21T06:03:30.074Z,8.52
2022-09-21T06:08:33.852Z,8.62
2022-09-21T06:13:37.439Z,8.96
2022-09-21T06:18:40.858Z,9.04
2022-09-21T06:23:44.814Z,8.63
2022-09-21T06:28:47.257Z,8.60
2022-09-21T06:33:49.698Z,8.75
2022-09-21T06:38:53.949Z,8.96
2022-09-21T06:43:57.254Z,9.41
2022-09-21T06:48:59.816Z,9.24
2022-09-21T06:54:03.985Z,9.42
2022-09-21T06:59:06.555Z,9.41
2022-09-21T07:04:09.587Z,9.44
2022-09-21T07:14:35.959Z,9.54
2022-09-21T07:19:38.491Z,9.61
2022-09-21T07:24:42.257Z,9.94
2022-09-21T07:29:44.972Z,10.03
2022-09-21T07:34:47.750Z,10.55
2022-09-21T07:39:51.952Z,10.41
2022-09-21T07:45:03.132Z,10.46
2022-09-21T07:50:07.495Z,10.86
2022-09-21T07:55:11.285Z,11.21
2022-09-21T08:00:14.354Z,11.45
2022-09-21T08:05:17.094Z,11.59
2022-09-21T08:10:20.937Z,11.00
2022-09-21T08:15:47.469Z,10.98
2022-09-21T08:20:54.317Z,11.66
2022-09-21T08:26:01.557Z,11.62
2022-09-21T08:31:08.309Z,12.02
2022-09-21T08:36:11.250Z,12.10
2022-09-21T08:41:19.899Z,12.45
2022-09-21T08:46:25.927Z,12.69
2022-09-21T08:51:33.717Z,12.84
2022-09-21T08:57:03.495Z,12.98
2022-09-21T09:02:09.092Z,13.03
2022-09-21T09:07:27.045Z,13.28
2022-09-21T09:12:41.350Z,13.73
2022-09-21T09:17:53.716Z,13.47
2022-09-21T09:23:04.728Z,13.26
2022-09-21T09:28:23.078Z,13.38
2022-09-21T09:33:29.013Z,13.90
2022-09-21T09:38:38.152Z,14.05
2022-09-21T09:43:58.477Z,14.17
2022-09-21T09:49:20.561Z,14.16
2022-09-21T09:54:28.862Z,14.18
2022-09-21T09:59:37.027Z,14.72
2022-09-21T10:04:56.019Z,14.97
2022-09-21T10:09:58.873Z,14.99
2022-09-21T10:15:03.808Z,15.57
2022-09-21T10:20:08.499Z,16.95
2022-09-21T10:25:16.702Z,20.99
2022-09-21T10:30:35.837Z,24.72
2022-09-21T10:35:50.092Z,24.47
2022-09-21T10:40:52.685Z,27.72
2022-09-21T10:45:58.153Z,25.58
2022-09-21T10:51:00.781Z,25.22
2022-09-21T10:56:21.886Z,25.88
2022-09-21T11:01:29.872Z,30.50
2022-09-21T11:06:40.186Z,30.02
2022-09-21T11:11:51.376Z,25.27
2022-09-21T11:16:59.112Z,22.85
2022-09-21T11:22:09.059Z,21.73
2022-09-21T11:27:16.737Z,21.13
2022-09-21T11:32:34.891Z,20.16
2022-09-21T11:37:51.156Z,21.43
2022-09-21T11:43:09.599Z,20.14
2022-09-21T11:48:28.362Z,24.03
2022-09-21T11:53:42.065Z,29.87
2022-09-21T11:58:53.177Z,31.21
2022-09-21T12:04:16.910Z,29.84
2022-09-21T12:09:40.943Z,28.06
2022-09-21T12:14:51.553Z,24.47
2022-09-21T12:20:04.532Z,30.45
2022-09-21T12:25:17.067Z,26.26
2022-09-21T12:30:22.267Z,23.84
2022-09-21T12:35:36.508Z,22.27
2022-09-21T12:40:43.515Z,21.16
2022-09-21T12:45:53.268Z,20.07
2022-09-21T12:51:05.844Z,19.86
2022-09-21T12:56:14.712Z,19.21
2022-09-21T13:01:28.220Z,19.10
2022-09-21T13:07:03.948Z,18.97
2022-09-21T13:12:12.025Z,18.99
2022-09-21T13:17:23.145Z,19.08
2022-09-21T13:22:31.232Z,19.47
2022-09-21T13:28:04.542Z,19.68
2022-09-21T13:33:32.378Z,20.46
2022-09-21T13:38:58.517Z,22.02
2022-09-21T13:44:05.225Z,23.81
2022-09-21T13:49:19.516Z,29.58
2022-09-21T13:54:26.813Z,32.43
2022-09-21T13:59:29.493Z,30.46
2022-09-21T14:04:37.108Z,32.34
2022-09-21T14:09:44.330Z,31.47
2022-09-21T14:15:12.895Z,32.60
2022-09-21T14:20:30.819Z,32.26
2022-09-21T14:25:52.107Z,32.62
2022-09-21T14:31:00.301Z,33.96
2022-09-21T14:36:09.078Z,31.38
2022-09-21T14:41:19.732Z,31.52
2022-09-21T14:46:38.443Z,31.54
2022-09-21T14:51:55.869Z,32.91
2022-09-21T14:57:19.588Z,30.77
2022-09-21T15:02:24.231Z,29.96
2022-09-21T15:08:00.264Z,25.66
2022-09-21T15:13:12.725Z,24.26
2022-09-21T15:18:21.544Z,24.03
2022-09-21T15:23:26.477Z,23.51
2022-09-21T15:29:04.968Z,20.60
2022-09-21T15:34:02.970Z,20.85
2022-09-21T15:39:06.698Z,20.18
2022-09-21T15:44:16.674Z,18.93
2022-09-21T15:49:21.951Z,19.97
2022-09-21T15:54:32.263Z,20.03
2022-09-21T15:59:36.867Z,20.18
2022-09-21T16:04:49.345Z,19.93
2022-09-21T16:09:53.721Z,19.81
2022-09-21T16:15:04.162Z,19.31
2022-09-21T16:20:17.351Z,19.15
2022-09-21T16:25:27.371Z,19.06
2022-09-21T16:30:44.704Z,19.09
2022-09-21T16:35:47.494Z,18.99
2022-09-21T16:40:51.809Z,19.17
2022-09-21T16:45:58.115Z,19.11
2022-09-21T16:51:01.187Z,18.60
2022-09-21T16:56:05.031Z,18.14
2022-09-21T17:01:14.064Z,17.91
2022-09-21T17:06:19.780Z,17.46
2022-09-21T17:11:22.291Z,16.15
2022-09-21T17:16:33.876Z,15.41
2022-09-21T17:21:36.648Z,15.01
2022-09-21T17:26:39.371Z,13.73
2022-09-21T17:31:43.148Z,13.90
2022-09-21T17:36:47.021Z,13.16
2022-09-21T17:41:58.230Z,12.49
2022-09-21T17:47:09.886Z,13.09
2022-09-21T17:52:39.000Z,12.45
2022-09-21T17:57:52.143Z,11.91
2022-09-21T18:02:57.154Z,11.85
2022-09-21T18:08:00.593Z,12.46
2022-09-21T18:13:24.052Z,11.25
2022-09-21T18:18:42.702Z,11.55
2022-09-21T18:23:56.115Z,11.55
2022-09-21T18:28:59.314Z,10.65
2022-09-21T18:34:22.220Z,11.76
2022-09-21T18:39:34.670Z,11.92
2022-09-21T18:44:44.246Z,12.00
2022-09-21T18:49:56.530Z,10.84
2022-09-21T18:54:59.245Z,10.29
2022-09-21T19:00:02.497Z,10.48
2022-09-21T19:05:07.623Z,10.52
2022-09-21T19:10:19.420Z,11.17
2022-09-21T19:15:55.559Z,10.33
2022-09-21T19:21:02.249Z,10.32
2022-09-21T19:26:13.226Z,10.43
2022-09-21T19:31:18.885Z,10.49
2022-09-21T19:36:24.356Z,9.96
2022-09-21T19:41:43.410Z,10.13
2022-09-21T19:46:58.003Z,11.13
2022-09-21T19:52:05.629Z,10.49
2022-09-21T19:57:31.709Z,9.32
2022-09-21T20:02:38.528Z,9.48
2022-09-21T20:07:50.228Z,9.46
2022-09-21T20:13:06.708Z,9.29
2022-09-21T20:18:23.329Z,10.18
2022-09-21T20:23:30.557Z,10.10
2022-09-21T20:28:33.565Z,9.30
2022-09-21T20:33:36.598Z,8.75
2022-09-21T20:38:40.613Z,9.74
2022-09-21T20:43:43.645Z,9.69
2022-09-21T20:48:46.131Z,9.69
2022-09-21T20:53:51.637Z,9.86
2022-09-21T20:58:54.562Z,10.04
2022-09-21T21:04:01.662Z,9.97
2022-09-21T21:09:06.042Z,8.47
2022-09-21T21:14:08.612Z,8.63
2022-09-21T21:19:11.448Z,8.52
2022-09-21T21:24:33.109Z,8.29
2022-09-21T21:29:35.557Z,8.14
2022-09-21T21:34:38.374Z,8.86
2022-09-21T21:39:42.507Z,9.46
2022-09-21T21:44:46.890Z,8.70
2022-09-21T21:49:49.468Z,9.09
2022-09-21T21:54:53.498Z,8.75
2022-09-21T21:59:55.982Z,9.30
2022-09-21T22:04:58.640Z,8.93
2022-09-21T22:10:03.001Z,9.38
2022-09-21T22:15:06.295Z,9.40
2022-09-21T22:20:10.253Z,8.55
2022-09-21T22:25:14.515Z,8.14
2022-09-21T22:30:17.237Z,8.88
2022-09-21T22:35:19.920Z,9.24
2022-09-21T22:40:23.883Z,9.53
2022-09-21T22:45:26.931Z,8.59
2022-09-21T22:50:30.226Z,7.87
2022-09-21T22:55:34.378Z,8.17
2022-09-21T23:00:36.990Z,8.86
2022-09-21T23:05:39.511Z,9.20
2022-09-21T23:10:43.532Z,9.08
2022-09-21T23:15:46.186Z,9.01
2022-09-21T23:20:57.254Z,7.56
2022-09-21T23:26:06.444Z,7.85
2022-09-21T23:31:11.898Z,8.42
2022-09-21T23:36:16.968Z,8.96
2022-09-21T23:41:23.399Z,9.18
2022-09-21T23:46:28.047Z,9.15
2022-09-21T23:51:30.943Z,9.23
2022-09-21T23:56:35.064Z,9.18
